sensor_id;sensor_type;location;lat;lon;timestamp;P1;P2;P0
70197;PMS5003;57582;-34.876;138.628;2024-01-25T00:01:39;2.40;2.10;1.23
70197;PMS5003;57582;-34.876;138.628;2024-01-25T00:04:41;3.57;2.97;1.83
70197;PMS5003;57582;-34.876;138.628;2024-01-25T00:07:54;2.70;2.00;1.20
70197;PMS5003;57582;-34.876;138.628;2024-01-25T00:10:39;2.50;1.67;1.47
70197;PMS5003;57582;-34.876;138.628;2024-01-25T00:13:39;2.80;2.80;0.97
70197;PMS5003;57582;-34.876;138.628;2024-01-25T00:16:41;2.30;2.30;1.03
70197;PMS5003;57582;-34.876;138.628;2024-01-25T00:19:39;3.47;2.87;1.80
70197;PMS5003;57582;-34.876;138.628;2024-01-25T00:22:39;3.03;2.47;1.63
70197;PMS5003;57582;-34.876;138.628;2024-01-25T00:25:39;3.30;2.83;1.90
70197;PMS5003;57582;-34.876;138.628;2024-01-25T00:28:39;4.00;3.83;2.23
70197;PMS5003;57582;-34.876;138.628;2024-01-25T00:31:39;3.13;2.90;1.93
70197;PMS5003;57582;-34.876;138.628;2024-01-25T00:34:39;2.57;2.57;1.63
70197;PMS5003;57582;-34.876;138.628;2024-01-25T00:37:39;2.27;2.27;1.20
70197;PMS5003;57582;-34.876;138.628;2024-01-25T00:40:39;1.77;1.77;0.97
70197;PMS5003;57582;-34.876;138.628;2024-01-25T00:43:39;1.80;0.30;0.00
70197;PMS5003;57582;-34.876;138.628;2024-01-25T00:46:39;1.87;1.33;0.50
70197;PMS5003;57582;-34.876;138.628;2024-01-25T00:49:39;1.37;1.37;0.33
70197;PMS5003;57582;-34.876;138.628;2024-01-25T00:52:41;2.83;1.30;0.37
70197;PMS5003;57582;-34.876;138.628;2024-01-25T00:55:39;0.80;0.80;0.37
70197;PMS5003;57582;-34.876;138.628;2024-01-25T00:58:39;1.00;1.00;0.27
70197;PMS5003;57582;-34.876;138.628;2024-01-25T01:01:41;0.87;0.87;0.73
70197;PMS5003;57582;-34.876;138.628;2024-01-25T01:04:41;7.67;3.27;1.93
70197;PMS5003;57582;-34.876;138.628;2024-01-25T01:07:39;2.43;1.97;0.83
70197;PMS5003;57582;-34.876;138.628;2024-01-25T01:10:39;2.43;1.43;0.70
70197;PMS5003;57582;-34.876;138.628;2024-01-25T01:13:39;3.43;2.40;1.00
70197;PMS5003;57582;-34.876;138.628;2024-01-25T01:16:39;2.67;1.87;0.70
70197;PMS5003;57582;-34.876;138.628;2024-01-25T01:19:40;2.07;2.07;1.07
70197;PMS5003;57582;-34.876;138.628;2024-01-25T01:22:39;3.73;2.53;1.50
70197;PMS5003;57582;-34.876;138.628;2024-01-25T01:25:39;2.90;1.97;0.87
70197;PMS5003;57582;-34.876;138.628;2024-01-25T01:28:42;0.93;0.83;0.27
70197;PMS5003;57582;-34.876;138.628;2024-01-25T01:31:39;1.83;1.67;0.63
70197;PMS5003;57582;-34.876;138.628;2024-01-25T01:34:39;2.50;2.50;1.70
70197;PMS5003;57582;-34.876;138.628;2024-01-25T01:37:39;2.93;2.30;0.93
70197;PMS5003;57582;-34.876;138.628;2024-01-25T01:40:40;2.00;2.00;1.00
70197;PMS5003;57582;-34.876;138.628;2024-01-25T01:43:39;2.57;2.57;1.33
70197;PMS5003;57582;-34.876;138.628;2024-01-25T01:46:39;3.23;2.83;1.37
70197;PMS5003;57582;-34.876;138.628;2024-01-25T01:49:39;3.27;3.27;1.47
70197;PMS5003;57582;-34.876;138.628;2024-01-25T01:52:42;2.67;2.33;1.57
70197;PMS5003;57582;-34.876;138.628;2024-01-25T01:55:39;2.57;2.07;1.10
70197;PMS5003;57582;-34.876;138.628;2024-01-25T01:58:39;1.83;1.50;0.57
70197;PMS5003;57582;-34.876;138.628;2024-01-25T02:01:39;3.13;1.97;0.73
70197;PMS5003;57582;-34.876;138.628;2024-01-25T02:04:39;1.80;1.80;0.80
70197;PMS5003;57582;-34.876;138.628;2024-01-25T02:07:40;3.33;2.17;0.93
70197;PMS5003;57582;-34.876;138.628;2024-01-25T02:10:39;1.97;1.97;1.33
70197;PMS5003;57582;-34.876;138.628;2024-01-25T02:13:39;2.47;2.47;1.10
70197;PMS5003;57582;-34.876;138.628;2024-01-25T02:16:41;2.40;1.27;1.03
70197;PMS5003;57582;-34.876;138.628;2024-01-25T02:19:39;4.13;2.50;1.70
70197;PMS5003;57582;-34.876;138.628;2024-01-25T02:22:39;1.87;1.40;0.77
70197;PMS5003;57582;-34.876;138.628;2024-01-25T02:25:39;3.37;1.53;0.87
70197;PMS5003;57582;-34.876;138.628;2024-01-25T02:28:39;3.27;3.27;1.37
70197;PMS5003;57582;-34.876;138.628;2024-01-25T02:31:39;2.80;2.80;1.50
70197;PMS5003;57582;-34.876;138.628;2024-01-25T02:34:39;2.87;1.67;1.20
70197;PMS5003;57582;-34.876;138.628;2024-01-25T02:37:40;3.43;3.03;1.63
70197;PMS5003;57582;-34.876;138.628;2024-01-25T02:40:39;3.57;1.73;0.70
70197;PMS5003;57582;-34.876;138.628;2024-01-25T02:43:39;1.43;1.43;0.90
70197;PMS5003;57582;-34.876;138.628;2024-01-25T02:46:39;1.33;1.33;0.83
70197;PMS5003;57582;-34.876;138.628;2024-01-25T02:49:39;2.90;2.13;0.87
70197;PMS5003;57582;-34.876;138.628;2024-01-25T02:52:41;1.53;1.17;0.87
70197;PMS5003;57582;-34.876;138.628;2024-01-25T02:55:39;1.73;1.73;0.50
70197;PMS5003;57582;-34.876;138.628;2024-01-25T02:58:39;0.77;0.77;0.77
70197;PMS5003;57582;-34.876;138.628;2024-01-25T03:01:41;1.30;1.30;0.43
70197;PMS5003;57582;-34.876;138.628;2024-01-25T03:04:42;3.23;2.33;1.10
70197;PMS5003;57582;-34.876;138.628;2024-01-25T03:07:39;2.20;1.70;0.90
70197;PMS5003;57582;-34.876;138.628;2024-01-25T03:10:39;2.87;2.30;0.70
70197;PMS5003;57582;-34.876;138.628;2024-01-25T03:13:39;2.30;2.30;1.00
70197;PMS5003;57582;-34.876;138.628;2024-01-25T03:16:41;2.30;2.30;0.93
70197;PMS5003;57582;-34.876;138.628;2024-01-25T03:19:39;2.67;1.93;1.33
70197;PMS5003;57582;-34.876;138.628;2024-01-25T03:22:39;1.23;1.23;0.73
70197;PMS5003;57582;-34.876;138.628;2024-01-25T03:25:39;1.47;1.47;0.13
70197;PMS5003;57582;-34.876;138.628;2024-01-25T03:28:42;1.77;1.17;0.40
70197;PMS5003;57582;-34.876;138.628;2024-01-25T03:31:39;0.77;0.63;0.47
70197;PMS5003;57582;-34.876;138.628;2024-01-25T03:34:39;1.03;1.03;0.70
70197;PMS5003;57582;-34.876;138.628;2024-01-25T03:37:39;0.87;0.87;0.33
70197;PMS5003;57582;-34.876;138.628;2024-01-25T03:40:41;0.67;0.67;0.33
70197;PMS5003;57582;-34.876;138.628;2024-01-25T03:43:39;0.60;0.60;0.00
70197;PMS5003;57582;-34.876;138.628;2024-01-25T03:46:39;2.20;0.97;0.57
70197;PMS5003;57582;-34.876;138.628;2024-01-25T03:49:39;2.73;1.00;0.10
70197;PMS5003;57582;-34.876;138.628;2024-01-25T03:52:40;1.77;1.47;0.53
70197;PMS5003;57582;-34.876;138.628;2024-01-25T03:55:41;0.87;0.87;0.43
70197;PMS5003;57582;-34.876;138.628;2024-01-25T03:58:39;1.30;1.30;0.43
70197;PMS5003;57582;-34.876;138.628;2024-01-25T04:01:47;1.57;1.57;0.83
70197;PMS5003;57582;-34.876;138.628;2024-01-25T04:04:42;2.70;2.10;1.00
70197;PMS5003;57582;-34.876;138.628;2024-01-25T04:07:39;1.83;1.30;0.70
70197;PMS5003;57582;-34.876;138.628;2024-01-25T04:10:39;2.23;1.57;0.00
70197;PMS5003;57582;-34.876;138.628;2024-01-25T04:13:40;1.07;1.07;0.93
70197;PMS5003;57582;-34.876;138.628;2024-01-25T04:16:40;3.73;1.30;0.57
70197;PMS5003;57582;-34.876;138.628;2024-01-25T04:19:39;1.37;1.37;0.30
70197;PMS5003;57582;-34.876;138.628;2024-01-25T04:22:39;1.77;1.60;0.67
70197;PMS5003;57582;-34.876;138.628;2024-01-25T04:25:39;1.43;1.43;1.00
70197;PMS5003;57582;-34.876;138.628;2024-01-25T04:28:42;1.63;1.63;0.40
70197;PMS5003;57582;-34.876;138.628;2024-01-25T04:31:43;0.97;0.77;0.43
70197;PMS5003;57582;-34.876;138.628;2024-01-25T04:34:40;1.80;1.40;0.70
70197;PMS5003;57582;-34.876;138.628;2024-01-25T04:37:39;2.70;1.63;0.50
70197;PMS5003;57582;-34.876;138.628;2024-01-25T04:40:41;2.77;0.97;0.43
70197;PMS5003;57582;-34.876;138.628;2024-01-25T04:43:39;3.00;2.37;1.07
70197;PMS5003;57582;-34.876;138.628;2024-01-25T04:46:39;1.47;1.10;0.53
70197;PMS5003;57582;-34.876;138.628;2024-01-25T04:49:40;2.13;1.73;0.73
70197;PMS5003;57582;-34.876;138.628;2024-01-25T04:52:40;4.53;1.63;1.07
70197;PMS5003;57582;-34.876;138.628;2024-01-25T04:55:39;1.67;1.57;0.40
70197;PMS5003;57582;-34.876;138.628;2024-01-25T04:58:39;1.47;1.47;0.63
70197;PMS5003;57582;-34.876;138.628;2024-01-25T05:01:39;2.43;1.23;0.13
70197;PMS5003;57582;-34.876;138.628;2024-01-25T05:04:40;2.10;0.93;0.20
70197;PMS5003;57582;-34.876;138.628;2024-01-25T05:07:39;0.97;0.83;0.33
70197;PMS5003;57582;-34.876;138.628;2024-01-25T05:10:39;2.13;1.20;0.00
70197;PMS5003;57582;-34.876;138.628;2024-01-25T05:13:39;1.80;1.10;0.30
70197;PMS5003;57582;-34.876;138.628;2024-01-25T05:16:42;1.40;0.60;0.00
70197;PMS5003;57582;-34.876;138.628;2024-01-25T05:19:39;1.63;1.63;0.77
70197;PMS5003;57582;-34.876;138.628;2024-01-25T05:22:39;1.93;0.63;0.27
70197;PMS5003;57582;-34.876;138.628;2024-01-25T05:25:39;1.37;0.80;0.37
70197;PMS5003;57582;-34.876;138.628;2024-01-25T05:28:41;0.30;0.30;0.00
70197;PMS5003;57582;-34.876;138.628;2024-01-25T05:31:39;0.60;0.60;0.03
70197;PMS5003;57582;-34.876;138.628;2024-01-25T05:34:39;0.23;0.23;0.00
70197;PMS5003;57582;-34.876;138.628;2024-01-25T05:37:39;0.30;0.30;0.00
70197;PMS5003;57582;-34.876;138.628;2024-01-25T05:40:42;0.43;0.43;0.00
70197;PMS5003;57582;-34.876;138.628;2024-01-25T05:43:39;1.70;1.00;0.00
70197;PMS5003;57582;-34.876;138.628;2024-01-25T05:46:39;1.50;0.47;0.03
70197;PMS5003;57582;-34.876;138.628;2024-01-25T05:49:40;1.53;1.00;0.27
70197;PMS5003;57582;-34.876;138.628;2024-01-25T05:52:44;1.20;0.73;0.27
70197;PMS5003;57582;-34.876;138.628;2024-01-25T05:55:39;1.27;0.93;0.00
70197;PMS5003;57582;-34.876;138.628;2024-01-25T05:58:39;1.20;1.00;0.10
70197;PMS5003;57582;-34.876;138.628;2024-01-25T06:01:39;1.50;1.13;0.67
70197;PMS5003;57582;-34.876;138.628;2024-01-25T06:04:40;0.87;0.70;0.20
70197;PMS5003;57582;-34.876;138.628;2024-01-25T06:07:40;1.60;1.23;0.67
70197;PMS5003;57582;-34.876;138.628;2024-01-25T06:10:39;1.03;0.43;0.00
70197;PMS5003;57582;-34.876;138.628;2024-01-25T06:13:39;0.93;0.73;0.00
70197;PMS5003;57582;-34.876;138.628;2024-01-25T06:16:42;1.20;0.67;0.10
70197;PMS5003;57582;-34.876;138.628;2024-01-25T06:19:39;1.17;1.17;0.10
70197;PMS5003;57582;-34.876;138.628;2024-01-25T06:22:39;1.03;0.70;0.13
70197;PMS5003;57582;-34.876;138.628;2024-01-25T06:25:41;0.00;0.00;0.00
70197;PMS5003;57582;-34.876;138.628;2024-01-25T06:28:42;0.87;0.87;0.60
70197;PMS5003;57582;-34.876;138.628;2024-01-25T06:31:42;1.73;1.23;0.33
70197;PMS5003;57582;-34.876;138.628;2024-01-25T06:34:40;1.50;1.17;0.50
70197;PMS5003;57582;-34.876;138.628;2024-01-25T06:37:40;1.37;1.37;0.57
70197;PMS5003;57582;-34.876;138.628;2024-01-25T06:40:41;1.27;0.93;0.67
70197;PMS5003;57582;-34.876;138.628;2024-01-25T06:43:40;0.90;0.70;0.20
70197;PMS5003;57582;-34.876;138.628;2024-01-25T06:46:39;1.33;0.93;0.07
70197;PMS5003;57582;-34.876;138.628;2024-01-25T06:49:40;1.97;1.97;0.00
70197;PMS5003;57582;-34.876;138.628;2024-01-25T06:52:41;2.27;1.23;0.07
70197;PMS5003;57582;-34.876;138.628;2024-01-25T06:55:39;0.60;0.60;0.23
70197;PMS5003;57582;-34.876;138.628;2024-01-25T06:58:39;1.77;1.57;0.93
70197;PMS5003;57582;-34.876;138.628;2024-01-25T07:01:40;2.10;2.10;0.87
70197;PMS5003;57582;-34.876;138.628;2024-01-25T07:04:40;0.67;0.67;0.10
70197;PMS5003;57582;-34.876;138.628;2024-01-25T07:07:39;1.47;1.43;0.70
70197;PMS5003;57582;-34.876;138.628;2024-01-25T07:10:40;0.73;0.73;0.33
70197;PMS5003;57582;-34.876;138.628;2024-01-25T07:13:41;3.20;1.83;0.30
70197;PMS5003;57582;-34.876;138.628;2024-01-25T07:16:42;1.83;1.47;0.40
70197;PMS5003;57582;-34.876;138.628;2024-01-25T07:19:39;1.63;0.93;0.60
70197;PMS5003;57582;-34.876;138.628;2024-01-25T07:22:40;2.13;1.13;0.93
70197;PMS5003;57582;-34.876;138.628;2024-01-25T07:25:40;1.80;1.23;1.00
70197;PMS5003;57582;-34.876;138.628;2024-01-25T07:28:40;1.67;1.67;0.83
70197;PMS5003;57582;-34.876;138.628;2024-01-25T07:31:40;1.20;0.80;0.57
70197;PMS5003;57582;-34.876;138.628;2024-01-25T07:34:39;3.97;3.17;1.87
70197;PMS5003;57582;-34.876;138.628;2024-01-25T07:37:40;2.77;1.63;0.50
70197;PMS5003;57582;-34.876;138.628;2024-01-25T07:40:40;3.10;1.60;1.00
70197;PMS5003;57582;-34.876;138.628;2024-01-25T07:43:40;1.70;1.20;0.50
70197;PMS5003;57582;-34.876;138.628;2024-01-25T07:46:39;2.10;1.97;0.77
70197;PMS5003;57582;-34.876;138.628;2024-01-25T07:49:40;0.97;0.97;0.83
70197;PMS5003;57582;-34.876;138.628;2024-01-25T07:52:40;1.57;1.57;0.93
70197;PMS5003;57582;-34.876;138.628;2024-01-25T07:55:39;2.80;2.80;1.70
70197;PMS5003;57582;-34.876;138.628;2024-01-25T07:58:40;1.53;1.53;1.00
70197;PMS5003;57582;-34.876;138.628;2024-01-25T08:01:39;1.93;1.93;0.80
70197;PMS5003;57582;-34.876;138.628;2024-01-25T08:04:41;3.30;1.50;0.17
70197;PMS5003;57582;-34.876;138.628;2024-01-25T08:07:39;1.17;1.17;0.00
70197;PMS5003;57582;-34.876;138.628;2024-01-25T08:10:39;2.50;1.70;0.53
70197;PMS5003;57582;-34.876;138.628;2024-01-25T08:13:42;2.80;2.80;1.73
70197;PMS5003;57582;-34.876;138.628;2024-01-25T08:16:41;1.97;1.53;0.83
70197;PMS5003;57582;-34.876;138.628;2024-01-25T08:19:39;2.23;2.23;1.00
70197;PMS5003;57582;-34.876;138.628;2024-01-25T08:22:41;1.37;1.33;0.50
70197;PMS5003;57582;-34.876;138.628;2024-01-25T08:25:40;2.10;1.53;0.77
70197;PMS5003;57582;-34.876;138.628;2024-01-25T08:28:42;1.60;1.60;0.00
70197;PMS5003;57582;-34.876;138.628;2024-01-25T08:31:39;1.60;1.60;0.77
70197;PMS5003;57582;-34.876;138.628;2024-01-25T08:34:40;2.67;1.83;0.83
70197;PMS5003;57582;-34.876;138.628;2024-01-25T08:37:40;2.30;1.50;0.60
70197;PMS5003;57582;-34.876;138.628;2024-01-25T08:40:40;1.77;0.80;0.63
70197;PMS5003;57582;-34.876;138.628;2024-01-25T08:43:39;1.93;1.40;1.17
70197;PMS5003;57582;-34.876;138.628;2024-01-25T08:46:39;2.33;1.87;1.03
70197;PMS5003;57582;-34.876;138.628;2024-01-25T08:49:39;1.63;1.63;0.83
70197;PMS5003;57582;-34.876;138.628;2024-01-25T08:52:42;1.33;0.97;0.87
70197;PMS5003;57582;-34.876;138.628;2024-01-25T08:55:40;2.80;2.13;1.27
70197;PMS5003;57582;-34.876;138.628;2024-01-25T08:58:39;2.03;1.43;0.00
70197;PMS5003;57582;-34.876;138.628;2024-01-25T09:01:39;1.47;1.33;0.47
70197;PMS5003;57582;-34.876;138.628;2024-01-25T09:04:40;2.70;1.80;0.63
70197;PMS5003;57582;-34.876;138.628;2024-01-25T09:07:40;2.03;1.47;1.00
70197;PMS5003;57582;-34.876;138.628;2024-01-25T09:10:41;1.07;1.07;0.70
70197;PMS5003;57582;-34.876;138.628;2024-01-25T09:13:40;1.17;1.17;0.80
70197;PMS5003;57582;-34.876;138.628;2024-01-25T09:16:40;1.50;1.07;0.80
70197;PMS5003;57582;-34.876;138.628;2024-01-25T09:19:40;0.30;0.20;0.00
70197;PMS5003;57582;-34.876;138.628;2024-01-25T09:22:40;1.93;1.93;0.90
70197;PMS5003;57582;-34.876;138.628;2024-01-25T09:25:40;1.03;1.03;0.70
70197;PMS5003;57582;-34.876;138.628;2024-01-25T09:28:41;1.40;0.90;0.10
70197;PMS5003;57582;-34.876;138.628;2024-01-25T09:31:40;2.03;1.30;0.70
70197;PMS5003;57582;-34.876;138.628;2024-01-25T09:34:40;0.97;0.97;0.50
70197;PMS5003;57582;-34.876;138.628;2024-01-25T09:37:40;1.60;1.07;0.27
70197;PMS5003;57582;-34.876;138.628;2024-01-25T09:40:40;2.93;1.80;0.67
70197;PMS5003;57582;-34.876;138.628;2024-01-25T09:43:40;2.03;2.03;0.90
70197;PMS5003;57582;-34.876;138.628;2024-01-25T09:46:45;1.57;1.57;0.80
70197;PMS5003;57582;-34.876;138.628;2024-01-25T09:49:41;1.97;1.97;1.07
70197;PMS5003;57582;-34.876;138.628;2024-01-25T09:52:50;1.03;1.03;0.47
70197;PMS5003;57582;-34.876;138.628;2024-01-25T09:55:41;2.67;2.67;0.97
70197;PMS5003;57582;-34.876;138.628;2024-01-25T09:58:41;2.23;1.30;1.00
70197;PMS5003;57582;-34.876;138.628;2024-01-25T10:01:40;2.67;2.57;1.37
70197;PMS5003;57582;-34.876;138.628;2024-01-25T10:04:40;2.40;2.40;1.80
70197;PMS5003;57582;-34.876;138.628;2024-01-25T10:07:41;2.07;1.83;1.27
70197;PMS5003;57582;-34.876;138.628;2024-01-25T10:10:40;2.27;2.27;1.33
70197;PMS5003;57582;-34.876;138.628;2024-01-25T10:13:48;1.90;1.90;1.50
70197;PMS5003;57582;-34.876;138.628;2024-01-25T10:16:40;2.17;1.73;0.87
70197;PMS5003;57582;-34.876;138.628;2024-01-25T10:19:43;2.47;2.47;1.03
70197;PMS5003;57582;-34.876;138.628;2024-01-25T10:22:40;3.27;2.20;1.53
70197;PMS5003;57582;-34.876;138.628;2024-01-25T10:25:40;1.17;1.17;0.47
70197;PMS5003;57582;-34.876;138.628;2024-01-25T10:28:40;4.83;2.63;1.27
70197;PMS5003;57582;-34.876;138.628;2024-01-25T10:31:40;2.23;1.80;1.03
70197;PMS5003;57582;-34.876;138.628;2024-01-25T10:34:41;1.50;1.50;0.80
70197;PMS5003;57582;-34.876;138.628;2024-01-25T10:37:40;2.03;1.33;0.53
70197;PMS5003;57582;-34.876;138.628;2024-01-25T10:40:40;2.43;1.83;1.20
70197;PMS5003;57582;-34.876;138.628;2024-01-25T10:43:40;2.57;1.97;0.97
70197;PMS5003;57582;-34.876;138.628;2024-01-25T10:46:40;2.53;2.23;0.97
70197;PMS5003;57582;-34.876;138.628;2024-01-25T10:49:41;4.17;3.73;1.73
70197;PMS5003;57582;-34.876;138.628;2024-01-25T10:52:42;2.43;2.43;1.20
70197;PMS5003;57582;-34.876;138.628;2024-01-25T10:55:40;2.03;2.03;1.63
70197;PMS5003;57582;-34.876;138.628;2024-01-25T10:58:41;4.20;4.20;2.70
70197;PMS5003;57582;-34.876;138.628;2024-01-25T11:01:45;4.37;3.70;2.17
70197;PMS5003;57582;-34.876;138.628;2024-01-25T11:04:40;5.97;4.70;2.23
70197;PMS5003;57582;-34.876;138.628;2024-01-25T11:07:41;3.10;3.10;1.47
70197;PMS5003;57582;-34.876;138.628;2024-01-25T11:10:40;1.57;1.57;1.13
70197;PMS5003;57582;-34.876;138.628;2024-01-25T11:13:41;4.53;4.53;2.33
70197;PMS5003;57582;-34.876;138.628;2024-01-25T11:16:41;3.13;3.13;2.13
70197;PMS5003;57582;-34.876;138.628;2024-01-25T11:19:40;3.27;3.27;1.63
70197;PMS5003;57582;-34.876;138.628;2024-01-25T11:22:44;3.17;2.67;1.70
70197;PMS5003;57582;-34.876;138.628;2024-01-25T11:25:40;2.80;2.80;1.40
70197;PMS5003;57582;-34.876;138.628;2024-01-25T11:28:44;3.37;2.47;1.80
70197;PMS5003;57582;-34.876;138.628;2024-01-25T11:31:40;4.63;3.60;2.03
70197;PMS5003;57582;-34.876;138.628;2024-01-25T11:34:40;2.57;2.33;1.53
70197;PMS5003;57582;-34.876;138.628;2024-01-25T11:37:40;2.23;2.23;1.57
70197;PMS5003;57582;-34.876;138.628;2024-01-25T11:40:40;2.43;2.43;1.10
70197;PMS5003;57582;-34.876;138.628;2024-01-25T11:43:40;2.83;2.40;1.23
70197;PMS5003;57582;-34.876;138.628;2024-01-25T11:46:40;3.27;2.03;1.47
70197;PMS5003;57582;-34.876;138.628;2024-01-25T11:49:40;3.77;3.77;2.80
70197;PMS5003;57582;-34.876;138.628;2024-01-25T11:52:41;3.90;3.57;2.40
70197;PMS5003;57582;-34.876;138.628;2024-01-25T11:55:40;4.07;3.03;2.13
70197;PMS5003;57582;-34.876;138.628;2024-01-25T11:58:40;3.27;2.60;2.00
70197;PMS5003;57582;-34.876;138.628;2024-01-25T12:01:41;3.47;2.77;1.47
70197;PMS5003;57582;-34.876;138.628;2024-01-25T12:04:41;3.60;3.60;2.00
70197;PMS5003;57582;-34.876;138.628;2024-01-25T12:07:40;3.60;3.27;1.83
70197;PMS5003;57582;-34.876;138.628;2024-01-25T12:10:40;2.30;2.30;1.20
70197;PMS5003;57582;-34.876;138.628;2024-01-25T12:13:42;6.70;3.80;1.80
70197;PMS5003;57582;-34.876;138.628;2024-01-25T12:16:40;4.60;3.40;1.77
70197;PMS5003;57582;-34.876;138.628;2024-01-25T12:19:40;4.83;3.90;2.73
70197;PMS5003;57582;-34.876;138.628;2024-01-25T12:22:40;3.70;3.70;2.30
70197;PMS5003;57582;-34.876;138.628;2024-01-25T12:25:40;3.70;3.70;2.67
70197;PMS5003;57582;-34.876;138.628;2024-01-25T12:28:41;2.60;2.60;1.60
70197;PMS5003;57582;-34.876;138.628;2024-01-25T12:31:40;3.30;2.83;1.73
70197;PMS5003;57582;-34.876;138.628;2024-01-25T12:34:40;4.30;3.27;2.00
70197;PMS5003;57582;-34.876;138.628;2024-01-25T12:37:40;3.00;2.77;2.20
70197;PMS5003;57582;-34.876;138.628;2024-01-25T12:40:44;4.77;4.13;2.03
70197;PMS5003;57582;-34.876;138.628;2024-01-25T12:43:41;4.90;4.90;2.40
70197;PMS5003;57582;-34.876;138.628;2024-01-25T12:46:40;3.37;3.37;2.40
70197;PMS5003;57582;-34.876;138.628;2024-01-25T12:49:41;4.53;4.53;2.87
70197;PMS5003;57582;-34.876;138.628;2024-01-25T12:52:40;4.13;3.13;1.90
70197;PMS5003;57582;-34.876;138.628;2024-01-25T12:55:40;4.83;3.93;2.13
70197;PMS5003;57582;-34.876;138.628;2024-01-25T12:58:40;8.33;4.40;3.10
70197;PMS5003;57582;-34.876;138.628;2024-01-25T13:01:40;4.10;3.97;2.03
70197;PMS5003;57582;-34.876;138.628;2024-01-25T13:04:40;5.33;4.50;2.90
70197;PMS5003;57582;-34.876;138.628;2024-01-25T13:07:40;4.07;3.57;1.67
70197;PMS5003;57582;-34.876;138.628;2024-01-25T13:10:40;4.87;4.37;2.53
70197;PMS5003;57582;-34.876;138.628;2024-01-25T13:13:40;5.70;3.27;2.00
70197;PMS5003;57582;-34.876;138.628;2024-01-25T13:16:41;1.30;1.27;0.73
70197;PMS5003;57582;-34.876;138.628;2024-01-25T13:19:40;2.90;2.00;1.00
70197;PMS5003;57582;-34.876;138.628;2024-01-25T13:22:40;2.17;1.47;0.63
70197;PMS5003;57582;-34.876;138.628;2024-01-25T13:25:40;1.10;1.10;0.53
70197;PMS5003;57582;-34.876;138.628;2024-01-25T13:28:42;2.77;1.00;0.00
70197;PMS5003;57582;-34.876;138.628;2024-01-25T13:31:41;2.03;0.70;0.00
70197;PMS5003;57582;-34.876;138.628;2024-01-25T13:34:40;1.03;1.03;0.87
70197;PMS5003;57582;-34.876;138.628;2024-01-25T13:37:40;1.67;0.90;0.13
70197;PMS5003;57582;-34.876;138.628;2024-01-25T13:40:41;0.47;0.23;0.20
70197;PMS5003;57582;-34.876;138.628;2024-01-25T13:43:40;1.80;1.10;0.40
70197;PMS5003;57582;-34.876;138.628;2024-01-25T13:46:40;0.83;0.80;0.00
70197;PMS5003;57582;-34.876;138.628;2024-01-25T13:49:40;0.67;0.67;0.00
70197;PMS5003;57582;-34.876;138.628;2024-01-25T13:52:42;0.57;0.57;0.00
70197;PMS5003;57582;-34.876;138.628;2024-01-25T13:55:40;1.20;0.80;0.13
70197;PMS5003;57582;-34.876;138.628;2024-01-25T13:58:40;2.57;2.57;1.33
70197;PMS5003;57582;-34.876;138.628;2024-01-25T14:01:40;1.97;1.97;0.93
70197;PMS5003;57582;-34.876;138.628;2024-01-25T14:04:42;1.23;1.23;1.00
70197;PMS5003;57582;-34.876;138.628;2024-01-25T14:07:40;1.37;1.37;0.50
70197;PMS5003;57582;-34.876;138.628;2024-01-25T14:10:40;1.87;1.87;0.63
70197;PMS5003;57582;-34.876;138.628;2024-01-25T14:13:40;2.60;1.80;1.20
70197;PMS5003;57582;-34.876;138.628;2024-01-25T14:16:41;1.23;0.40;0.07
70197;PMS5003;57582;-34.876;138.628;2024-01-25T14:19:41;1.90;1.90;1.37
70197;PMS5003;57582;-34.876;138.628;2024-01-25T14:22:40;1.93;1.93;1.03
70197;PMS5003;57582;-34.876;138.628;2024-01-25T14:25:40;3.53;2.60;1.10
70197;PMS5003;57582;-34.876;138.628;2024-01-25T14:28:42;3.90;2.50;1.50
70197;PMS5003;57582;-34.876;138.628;2024-01-25T14:31:40;2.23;2.23;1.10
70197;PMS5003;57582;-34.876;138.628;2024-01-25T14:34:40;4.13;2.20;1.10
70197;PMS5003;57582;-34.876;138.628;2024-01-25T14:37:40;1.77;1.53;0.87
70197;PMS5003;57582;-34.876;138.628;2024-01-25T14:40:44;2.17;1.83;1.17
70197;PMS5003;57582;-34.876;138.628;2024-01-25T14:43:40;4.00;3.40;1.70
70197;PMS5003;57582;-34.876;138.628;2024-01-25T14:46:40;2.23;2.20;1.17
70197;PMS5003;57582;-34.876;138.628;2024-01-25T14:49:40;2.03;1.70;1.30
70197;PMS5003;57582;-34.876;138.628;2024-01-25T14:52:41;2.60;2.60;2.20
70197;PMS5003;57582;-34.876;138.628;2024-01-25T14:55:40;3.47;3.47;2.43
70197;PMS5003;57582;-34.876;138.628;2024-01-25T14:58:41;4.10;4.10;2.60
70197;PMS5003;57582;-34.876;138.628;2024-01-25T15:01:40;3.43;1.93;0.63
70197;PMS5003;57582;-34.876;138.628;2024-01-25T15:04:41;5.57;5.37;3.90
70197;PMS5003;57582;-34.876;138.628;2024-01-25T15:07:41;5.47;4.80;2.97
70197;PMS5003;57582;-34.876;138.628;2024-01-25T15:10:40;4.60;4.30;2.33
70197;PMS5003;57582;-34.876;138.628;2024-01-25T15:13:40;6.43;5.30;3.00
70197;PMS5003;57582;-34.876;138.628;2024-01-25T15:16:41;5.33;4.50;3.10
70197;PMS5003;57582;-34.876;138.628;2024-01-25T15:19:40;3.70;3.70;2.67
70197;PMS5003;57582;-34.876;138.628;2024-01-25T15:22:40;4.70;3.60;2.53
70197;PMS5003;57582;-34.876;138.628;2024-01-25T15:25:40;4.77;3.77;2.43
70197;PMS5003;57582;-34.876;138.628;2024-01-25T15:28:43;4.10;3.60;2.73
70197;PMS5003;57582;-34.876;138.628;2024-01-25T15:31:40;5.37;2.83;2.20
70197;PMS5003;57582;-34.876;138.628;2024-01-25T15:34:40;3.80;2.93;2.43
70197;PMS5003;57582;-34.876;138.628;2024-01-25T15:37:40;2.20;1.97;1.33
70197;PMS5003;57582;-34.876;138.628;2024-01-25T15:40:42;2.30;2.03;1.40
70197;PMS5003;57582;-34.876;138.628;2024-01-25T15:43:40;3.47;2.97;1.90
70197;PMS5003;57582;-34.876;138.628;2024-01-25T15:46:40;3.30;2.33;1.60
70197;PMS5003;57582;-34.876;138.628;2024-01-25T15:49:40;3.13;2.33;1.63
70197;PMS5003;57582;-34.876;138.628;2024-01-25T15:52:42;3.50;2.37;1.60
70197;PMS5003;57582;-34.876;138.628;2024-01-25T15:55:40;3.20;2.50;1.23
70197;PMS5003;57582;-34.876;138.628;2024-01-25T15:58:40;4.13;3.33;1.40
70197;PMS5003;57582;-34.876;138.628;2024-01-25T16:01:40;4.03;3.07;1.73
70197;PMS5003;57582;-34.876;138.628;2024-01-25T16:04:42;3.03;3.03;2.10
70197;PMS5003;57582;-34.876;138.628;2024-01-25T16:07:40;2.57;2.57;1.93
70197;PMS5003;57582;-34.876;138.628;2024-01-25T16:10:40;4.90;3.27;1.87
70197;PMS5003;57582;-34.876;138.628;2024-01-25T16:13:40;4.60;3.30;2.70
70197;PMS5003;57582;-34.876;138.628;2024-01-25T16:16:41;2.37;1.97;0.97
70197;PMS5003;57582;-34.876;138.628;2024-01-25T16:19:41;2.07;2.07;1.53
70197;PMS5003;57582;-34.876;138.628;2024-01-25T16:22:40;4.67;3.27;1.77
70197;PMS5003;57582;-34.876;138.628;2024-01-25T16:25:40;4.17;2.67;1.57
70197;PMS5003;57582;-34.876;138.628;2024-01-25T16:28:41;3.27;3.27;1.67
70197;PMS5003;57582;-34.876;138.628;2024-01-25T16:31:40;3.43;2.53;1.67
70197;PMS5003;57582;-34.876;138.628;2024-01-25T16:34:41;3.70;3.00;1.90
70197;PMS5003;57582;-34.876;138.628;2024-01-25T16:37:40;2.80;2.17;1.33
70197;PMS5003;57582;-34.876;138.628;2024-01-25T16:40:41;4.87;3.07;1.73
70197;PMS5003;57582;-34.876;138.628;2024-01-25T16:43:41;4.17;2.77;1.90
70197;PMS5003;57582;-34.876;138.628;2024-01-25T16:46:40;3.80;1.93;0.63
70197;PMS5003;57582;-34.876;138.628;2024-01-25T16:49:40;2.67;2.20;1.20